Plaisance, Mauritius

18:56 MUT le 07 février 2016 (GMT +0400)
Mauritius International | | Change Station
CLOSE
Current Station
Aéroport
Location: Plaisance,
Altitude: 187 ft
Stations météo à proximité

Alt. 187 ft 20.43 °S, 57.68 °E | Updated 56 minutes ago

Mostly Cloudy
Nuageux
84 ° F
Paraît 96 ° F
N
17
Vent Variable Vent de Est

Aujourd'hui
Haut(e) -- | Bas -- ° F
--% Risque de précip.
Hier
Haut(e) -- | Bas -- ° F
Precip. -- pouce
Pression 29.83 pouce
Visibilité 5.0 Miles terrestres
Nuages Peu 500 ft
Peu 1200 ft
Nuages épars 1300 ft
Nuageux 25000 ft
indice de chaleur 96 ° F
Point de rosée 79 ° F
Humidité 84%
Précipitations 0.00 pouce
Profondeur de la couche neigeuse Non disponible.
5:55 AM 6:50 PM
Lune descendante, 1% visible
METAR FIMP 071400Z 10015KT 8000 VCSH FEW005 FEW012TCU SCT013 BKN250 29/26 Q1010
Pression 29.83 pouce
Visibilité 5.0 Miles terrestres
Nuages Peu 500 ft
Peu 1200 ft
Nuages épars 1300 ft
Nuageux 25000 ft
indice de chaleur 96 ° F
Point de rosée 79 ° F
Humidité 84%
Précipitations 0.00 pouce
Profondeur de la couche neigeuse Non disponible.
5:55 AM 6:50 PM
Lune descendante, 1% visible
METAR FIMP 071400Z 10015KT 8000 VCSH FEW005 FEW012TCU SCT013 BKN250 29/26 Q1010

10-Day Weather Forecast

No radar image for this location.
×

Almanac

Astronomie

Feb. 07, 2016 Lever Coucher
Temps réel
Crépuscule civil
Crépuscule nautique
Crépuscule astronomique
Lune
Durée de lumière visible
Longueur du jour
Tomorrow will be .
, % of the Moon is Illuminated

Extrêmes aujourd'hui

Country Highs Country Lows

Community

WunderPhotos

Upload Photos

1,891,205 Photos téléchargées !

WunderBlog® & News

Nearby

Qualité de l'air

  Qualité de l'air Indice de la qualité de l'air Polluant
Not available.

Épaisseur de neige

Station Depth Altitude

Activité sismique

Ville Distance Mag. Time & Date
Minimum magnitude displayed is 2.5.

Températures des eaux côtières

Lieu Température

Stations

Stations météo à proximité

Emplacement de la station Température Refroidissement éolien Point de rosée Humidité Vent Precip. Alt. Mise à jour Type